sensor_id;sensor_type;location;lat;lon;timestamp;P1;durP1;ratioP1;P2;durP2;ratioP2
9722;SDS011;4900;49.306;8.500;2022-10-16T00:02:31;5.95;;;2.38;;
9722;SDS011;4900;49.306;8.500;2022-10-16T00:05:37;4.63;;;2.33;;
9722;SDS011;4900;49.306;8.500;2022-10-16T00:08:42;2.65;;;2.17;;
9722;SDS011;4900;49.306;8.500;2022-10-16T00:11:46;4.70;;;2.35;;
9722;SDS011;4900;49.306;8.500;2022-10-16T00:14:49;3.78;;;2.40;;
9722;SDS011;4900;49.306;8.500;2022-10-16T00:17:52;2.65;;;2.40;;
9722;SDS011;4900;49.306;8.500;2022-10-16T00:20:55;4.80;;;2.17;;
9722;SDS011;4900;49.306;8.500;2022-10-16T00:24:05;3.40;;;2.10;;
9722;SDS011;4900;49.306;8.500;2022-10-16T00:27:11;3.03;;;2.47;;
9722;SDS011;4900;49.306;8.500;2022-10-16T00:30:13;4.88;;;2.22;;
9722;SDS011;4900;49.306;8.500;2022-10-16T00:33:17;3.42;;;2.42;;
9722;SDS011;4900;49.306;8.500;2022-10-16T00:36:21;2.95;;;2.33;;
9722;SDS011;4900;49.306;8.500;2022-10-16T00:39:26;3.45;;;2.28;;
9722;SDS011;4900;49.306;8.500;2022-10-16T00:42:29;3.58;;;2.22;;
9722;SDS011;4900;49.306;8.500;2022-10-16T00:45:32;5.63;;;2.78;;
9722;SDS011;4900;49.306;8.500;2022-10-16T00:48:35;4.97;;;2.38;;
9722;SDS011;4900;49.306;8.500;2022-10-16T00:51:40;3.92;;;2.58;;
9722;SDS011;4900;49.306;8.500;2022-10-16T00:54:44;3.15;;;2.25;;
9722;SDS011;4900;49.306;8.500;2022-10-16T00:57:49;3.22;;;2.53;;
9722;SDS011;4900;49.306;8.500;2022-10-16T01:00:53;5.82;;;2.60;;
9722;SDS011;4900;49.306;8.500;2022-10-16T01:03:57;3.88;;;2.38;;
9722;SDS011;4900;49.306;8.500;2022-10-16T01:13:27;3.25;;;2.25;;
9722;SDS011;4900;49.306;8.500;2022-10-16T01:16:50;2.95;;;2.30;;
9722;SDS011;4900;49.306;8.500;2022-10-16T01:20:01;5.65;;;2.10;;
9722;SDS011;4900;49.306;8.500;2022-10-16T01:32:57;4.97;;;2.85;;
9722;SDS011;4900;49.306;8.500;2022-10-16T01:36:09;2.80;;;2.30;;
9722;SDS011;4900;49.306;8.500;2022-10-16T01:39:16;3.63;;;2.35;;
9722;SDS011;4900;49.306;8.500;2022-10-16T01:42:26;3.53;;;2.45;;
9722;SDS011;4900;49.306;8.500;2022-10-16T01:45:36;3.70;;;2.40;;
9722;SDS011;4900;49.306;8.500;2022-10-16T01:48:39;2.60;;;2.40;;
9722;SDS011;4900;49.306;8.500;2022-10-16T01:51:43;2.70;;;2.50;;
9722;SDS011;4900;49.306;8.500;2022-10-16T01:54:49;3.50;;;2.50;;
9722;SDS011;4900;49.306;8.500;2022-10-16T01:57:56;3.85;;;2.78;;
9722;SDS011;4900;49.306;8.500;2022-10-16T02:01:02;3.08;;;2.40;;
9722;SDS011;4900;49.306;8.500;2022-10-16T02:04:15;2.92;;;2.20;;
9722;SDS011;4900;49.306;8.500;2022-10-16T02:07:23;4.30;;;2.33;;
9722;SDS011;4900;49.306;8.500;2022-10-16T02:10:26;3.72;;;2.30;;
9722;SDS011;4900;49.306;8.500;2022-10-16T02:13:35;5.82;;;2.58;;
9722;SDS011;4900;49.306;8.500;2022-10-16T02:16:42;5.07;;;2.33;;
9722;SDS011;4900;49.306;8.500;2022-10-16T02:19:48;4.10;;;2.90;;
9722;SDS011;4900;49.306;8.500;2022-10-16T02:22:53;3.75;;;2.63;;
9722;SDS011;4900;49.306;8.500;2022-10-16T02:25:58;2.47;;;2.28;;
9722;SDS011;4900;49.306;8.500;2022-10-16T02:29:02;4.40;;;2.88;;
9722;SDS011;4900;49.306;8.500;2022-10-16T02:32:10;4.47;;;2.22;;
9722;SDS011;4900;49.306;8.500;2022-10-16T02:35:18;4.63;;;2.70;;
9722;SDS011;4900;49.306;8.500;2022-10-16T02:38:26;4.63;;;2.63;;
9722;SDS011;4900;49.306;8.500;2022-10-16T02:41:30;5.75;;;2.95;;
9722;SDS011;4900;49.306;8.500;2022-10-16T02:44:33;3.33;;;2.63;;
9722;SDS011;4900;49.306;8.500;2022-10-16T02:47:36;3.53;;;3.00;;
9722;SDS011;4900;49.306;8.500;2022-10-16T02:50:40;4.45;;;2.45;;
9722;SDS011;4900;49.306;8.500;2022-10-16T02:53:43;4.20;;;2.67;;
9722;SDS011;4900;49.306;8.500;2022-10-16T02:56:47;3.10;;;2.33;;
9722;SDS011;4900;49.306;8.500;2022-10-16T02:59:50;4.07;;;2.70;;
9722;SDS011;4900;49.306;8.500;2022-10-16T03:02:53;4.32;;;2.80;;
9722;SDS011;4900;49.306;8.500;2022-10-16T03:05:56;4.22;;;2.90;;
9722;SDS011;4900;49.306;8.500;2022-10-16T03:08:59;6.05;;;2.60;;
9722;SDS011;4900;49.306;8.500;2022-10-16T03:12:02;3.35;;;2.45;;
9722;SDS011;4900;49.306;8.500;2022-10-16T03:15:05;3.13;;;2.53;;
9722;SDS011;4900;49.306;8.500;2022-10-16T03:18:09;4.28;;;2.67;;
9722;SDS011;4900;49.306;8.500;2022-10-16T03:21:12;4.35;;;3.30;;
9722;SDS011;4900;49.306;8.500;2022-10-16T03:24:15;4.28;;;3.03;;
9722;SDS011;4900;49.306;8.500;2022-10-16T03:27:18;6.45;;;3.92;;
9722;SDS011;4900;49.306;8.500;2022-10-16T03:30:21;5.60;;;4.40;;
9722;SDS011;4900;49.306;8.500;2022-10-16T03:33:23;7.45;;;4.43;;
9722;SDS011;4900;49.306;8.500;2022-10-16T03:36:26;6.43;;;4.30;;
9722;SDS011;4900;49.306;8.500;2022-10-16T03:39:29;4.93;;;3.90;;
9722;SDS011;4900;49.306;8.500;2022-10-16T03:42:32;4.40;;;3.38;;
9722;SDS011;4900;49.306;8.500;2022-10-16T03:45:35;4.63;;;3.25;;
9722;SDS011;4900;49.306;8.500;2022-10-16T03:48:38;4.43;;;2.92;;
9722;SDS011;4900;49.306;8.500;2022-10-16T03:51:42;3.75;;;2.75;;
9722;SDS011;4900;49.306;8.500;2022-10-16T03:54:46;4.70;;;2.92;;
9722;SDS011;4900;49.306;8.500;2022-10-16T03:57:49;3.38;;;2.55;;
9722;SDS011;4900;49.306;8.500;2022-10-16T04:00:51;4.18;;;2.60;;
9722;SDS011;4900;49.306;8.500;2022-10-16T04:03:55;3.97;;;2.60;;
9722;SDS011;4900;49.306;8.500;2022-10-16T04:06:58;4.13;;;2.50;;
9722;SDS011;4900;49.306;8.500;2022-10-16T04:10:01;3.58;;;2.50;;
9722;SDS011;4900;49.306;8.500;2022-10-16T04:13:04;5.60;;;2.75;;
9722;SDS011;4900;49.306;8.500;2022-10-16T04:16:08;4.50;;;2.40;;
9722;SDS011;4900;49.306;8.500;2022-10-16T04:19:11;2.90;;;2.60;;
9722;SDS011;4900;49.306;8.500;2022-10-16T04:22:14;4.07;;;2.67;;
9722;SDS011;4900;49.306;8.500;2022-10-16T04:25:17;2.60;;;2.40;;
9722;SDS011;4900;49.306;8.500;2022-10-16T04:28:20;4.13;;;2.35;;
9722;SDS011;4900;49.306;8.500;2022-10-16T04:31:23;3.05;;;2.53;;
9722;SDS011;4900;49.306;8.500;2022-10-16T04:34:26;3.67;;;2.40;;
9722;SDS011;4900;49.306;8.500;2022-10-16T04:37:29;4.07;;;2.22;;
9722;SDS011;4900;49.306;8.500;2022-10-16T04:40:31;4.80;;;2.40;;
9722;SDS011;4900;49.306;8.500;2022-10-16T04:43:40;2.67;;;2.20;;
9722;SDS011;4900;49.306;8.500;2022-10-16T04:46:43;5.63;;;2.20;;
9722;SDS011;4900;49.306;8.500;2022-10-16T04:49:46;3.42;;;2.22;;
9722;SDS011;4900;49.306;8.500;2022-10-16T04:52:49;5.45;;;2.35;;
9722;SDS011;4900;49.306;8.500;2022-10-16T04:55:52;2.33;;;2.10;;
9722;SDS011;4900;49.306;8.500;2022-10-16T04:58:55;5.05;;;2.28;;
9722;SDS011;4900;49.306;8.500;2022-10-16T05:01:58;2.92;;;2.13;;
9722;SDS011;4900;49.306;8.500;2022-10-16T05:05:01;3.03;;;2.25;;
9722;SDS011;4900;49.306;8.500;2022-10-16T05:08:04;2.30;;;2.10;;
9722;SDS011;4900;49.306;8.500;2022-10-16T05:11:06;4.15;;;2.22;;
9722;SDS011;4900;49.306;8.500;2022-10-16T05:14:09;3.20;;;2.20;;
9722;SDS011;4900;49.306;8.500;2022-10-16T05:17:12;2.40;;;2.17;;
9722;SDS011;4900;49.306;8.500;2022-10-16T05:20:15;2.72;;;2.10;;
9722;SDS011;4900;49.306;8.500;2022-10-16T05:23:18;3.80;;;2.20;;
9722;SDS011;4900;49.306;8.500;2022-10-16T05:26:21;3.15;;;2.10;;
9722;SDS011;4900;49.306;8.500;2022-10-16T05:29:24;4.18;;;2.40;;
9722;SDS011;4900;49.306;8.500;2022-10-16T05:32:27;4.00;;;2.00;;
9722;SDS011;4900;49.306;8.500;2022-10-16T05:35:30;4.10;;;1.95;;
9722;SDS011;4900;49.306;8.500;2022-10-16T05:38:34;3.95;;;2.00;;
9722;SDS011;4900;49.306;8.500;2022-10-16T05:41:37;3.70;;;2.20;;
9722;SDS011;4900;49.306;8.500;2022-10-16T05:44:40;3.92;;;1.92;;
9722;SDS011;4900;49.306;8.500;2022-10-16T05:51:18;3.33;;;1.98;;
9722;SDS011;4900;49.306;8.500;2022-10-16T05:54:21;3.17;;;2.20;;
9722;SDS011;4900;49.306;8.500;2022-10-16T05:57:24;3.53;;;2.50;;
9722;SDS011;4900;49.306;8.500;2022-10-16T06:00:27;2.53;;;2.33;;
9722;SDS011;4900;49.306;8.500;2022-10-16T06:03:30;2.72;;;2.20;;
9722;SDS011;4900;49.306;8.500;2022-10-16T06:06:33;8.65;;;6.40;;
9722;SDS011;4900;49.306;8.500;2022-10-16T06:09:36;5.53;;;3.30;;
9722;SDS011;4900;49.306;8.500;2022-10-16T06:12:39;6.38;;;3.60;;
9722;SDS011;4900;49.306;8.500;2022-10-16T06:15:42;4.35;;;2.78;;
9722;SDS011;4900;49.306;8.500;2022-10-16T06:18:46;4.20;;;3.00;;
9722;SDS011;4900;49.306;8.500;2022-10-16T06:21:49;7.32;;;2.80;;
9722;SDS011;4900;49.306;8.500;2022-10-16T06:24:52;3.40;;;2.53;;
9722;SDS011;4900;49.306;8.500;2022-10-16T06:27:55;4.05;;;2.42;;
9722;SDS011;4900;49.306;8.500;2022-10-16T06:30:58;6.38;;;2.53;;
9722;SDS011;4900;49.306;8.500;2022-10-16T06:34:02;4.18;;;2.40;;
9722;SDS011;4900;49.306;8.500;2022-10-16T06:37:08;2.90;;;2.25;;
9722;SDS011;4900;49.306;8.500;2022-10-16T06:40:11;2.88;;;2.20;;
9722;SDS011;4900;49.306;8.500;2022-10-16T06:43:14;3.05;;;2.45;;
9722;SDS011;4900;49.306;8.500;2022-10-16T06:46:18;5.28;;;2.70;;
9722;SDS011;4900;49.306;8.500;2022-10-16T06:49:23;3.40;;;2.38;;
9722;SDS011;4900;49.306;8.500;2022-10-16T06:52:27;3.83;;;2.63;;
9722;SDS011;4900;49.306;8.500;2022-10-16T06:55:31;4.72;;;2.30;;
9722;SDS011;4900;49.306;8.500;2022-10-16T06:58:33;3.60;;;2.40;;
9722;SDS011;4900;49.306;8.500;2022-10-16T07:01:36;2.92;;;2.20;;
9722;SDS011;4900;49.306;8.500;2022-10-16T07:04:39;3.10;;;2.80;;
9722;SDS011;4900;49.306;8.500;2022-10-16T07:07:42;5.53;;;2.90;;
9722;SDS011;4900;49.306;8.500;2022-10-16T07:10:45;3.20;;;2.42;;
9722;SDS011;4900;49.306;8.500;2022-10-16T07:13:50;4.57;;;2.60;;
9722;SDS011;4900;49.306;8.500;2022-10-16T07:16:54;4.05;;;2.47;;
9722;SDS011;4900;49.306;8.500;2022-10-16T07:19:57;4.32;;;2.47;;
9722;SDS011;4900;49.306;8.500;2022-10-16T07:22:59;3.92;;;2.50;;
9722;SDS011;4900;49.306;8.500;2022-10-16T07:26:03;5.25;;;3.22;;
9722;SDS011;4900;49.306;8.500;2022-10-16T07:29:07;4.65;;;3.10;;
9722;SDS011;4900;49.306;8.500;2022-10-16T07:32:17;3.17;;;2.67;;
9722;SDS011;4900;49.306;8.500;2022-10-16T07:35:21;4.18;;;2.60;;
9722;SDS011;4900;49.306;8.500;2022-10-16T07:38:23;3.63;;;3.00;;
9722;SDS011;4900;49.306;8.500;2022-10-16T07:41:27;5.55;;;2.95;;
9722;SDS011;4900;49.306;8.500;2022-10-16T07:44:30;5.13;;;2.40;;
9722;SDS011;4900;49.306;8.500;2022-10-16T07:47:33;3.35;;;2.40;;
9722;SDS011;4900;49.306;8.500;2022-10-16T07:50:36;3.38;;;2.95;;
9722;SDS011;4900;49.306;8.500;2022-10-16T07:53:39;5.47;;;2.83;;
9722;SDS011;4900;49.306;8.500;2022-10-16T07:56:42;3.28;;;2.60;;
9722;SDS011;4900;49.306;8.500;2022-10-16T07:59:45;7.13;;;2.78;;
9722;SDS011;4900;49.306;8.500;2022-10-16T08:02:48;2.88;;;2.45;;
9722;SDS011;4900;49.306;8.500;2022-10-16T08:05:51;6.03;;;2.40;;
9722;SDS011;4900;49.306;8.500;2022-10-16T08:08:55;3.95;;;2.60;;
9722;SDS011;4900;49.306;8.500;2022-10-16T08:11:58;3.67;;;2.45;;
9722;SDS011;4900;49.306;8.500;2022-10-16T08:15:01;4.82;;;2.60;;
9722;SDS011;4900;49.306;8.500;2022-10-16T08:18:04;4.38;;;2.22;;
9722;SDS011;4900;49.306;8.500;2022-10-16T08:21:12;2.58;;;2.10;;
9722;SDS011;4900;49.306;8.500;2022-10-16T08:24:17;4.10;;;2.22;;
9722;SDS011;4900;49.306;8.500;2022-10-16T08:27:20;4.68;;;2.50;;
9722;SDS011;4900;49.306;8.500;2022-10-16T08:30:23;3.92;;;2.30;;
9722;SDS011;4900;49.306;8.500;2022-10-16T08:33:26;3.70;;;2.20;;
9722;SDS011;4900;49.306;8.500;2022-10-16T08:36:30;3.75;;;2.38;;
9722;SDS011;4900;49.306;8.500;2022-10-16T08:39:33;3.22;;;2.33;;
9722;SDS011;4900;49.306;8.500;2022-10-16T08:49:05;2.33;;;2.10;;
9722;SDS011;4900;49.306;8.500;2022-10-16T08:52:16;2.80;;;2.25;;
9722;SDS011;4900;49.306;8.500;2022-10-16T08:55:41;2.38;;;2.00;;
9722;SDS011;4900;49.306;8.500;2022-10-16T08:58:53;2.38;;;2.05;;
9722;SDS011;4900;49.306;8.500;2022-10-16T09:01:57;6.00;;;2.20;;
9722;SDS011;4900;49.306;8.500;2022-10-16T09:22:25;4.07;;;3.03;;
9722;SDS011;4900;49.306;8.500;2022-10-16T09:25:31;5.13;;;2.60;;
9722;SDS011;4900;49.306;8.500;2022-10-16T09:28:35;6.00;;;4.00;;
9722;SDS011;4900;49.306;8.500;2022-10-16T09:31:37;4.10;;;3.03;;
9722;SDS011;4900;49.306;8.500;2022-10-16T09:34:51;3.47;;;2.97;;
9722;SDS011;4900;49.306;8.500;2022-10-16T09:37:59;5.15;;;3.08;;
9722;SDS011;4900;49.306;8.500;2022-10-16T09:44:23;3.53;;;2.47;;
9722;SDS011;4900;49.306;8.500;2022-10-16T09:47:30;3.72;;;2.65;;
9722;SDS011;4900;49.306;8.500;2022-10-16T09:50:33;3.38;;;2.70;;
9722;SDS011;4900;49.306;8.500;2022-10-16T09:53:38;4.85;;;2.78;;
9722;SDS011;4900;49.306;8.500;2022-10-16T09:56:43;4.90;;;3.40;;
9722;SDS011;4900;49.306;8.500;2022-10-16T09:59:55;5.22;;;2.70;;
9722;SDS011;4900;49.306;8.500;2022-10-16T10:02:59;4.05;;;2.58;;
9722;SDS011;4900;49.306;8.500;2022-10-16T10:06:25;3.28;;;2.17;;
9722;SDS011;4900;49.306;8.500;2022-10-16T10:09:34;6.53;;;2.50;;
9722;SDS011;4900;49.306;8.500;2022-10-16T10:12:41;2.67;;;1.80;;
9722;SDS011;4900;49.306;8.500;2022-10-16T10:15:44;3.58;;;2.20;;
9722;SDS011;4900;49.306;8.500;2022-10-16T10:18:57;4.03;;;2.33;;
9722;SDS011;4900;49.306;8.500;2022-10-16T10:22:00;3.58;;;2.10;;
9722;SDS011;4900;49.306;8.500;2022-10-16T10:45:08;2.80;;;2.08;;
9722;SDS011;4900;49.306;8.500;2022-10-16T10:52:17;5.05;;;2.25;;
9722;SDS011;4900;49.306;8.500;2022-10-16T10:55:40;3.63;;;2.10;;
9722;SDS011;4900;49.306;8.500;2022-10-16T11:03:24;4.50;;;1.80;;
9722;SDS011;4900;49.306;8.500;2022-10-16T11:06:25;2.65;;;1.80;;
9722;SDS011;4900;49.306;8.500;2022-10-16T11:09:46;3.35;;;1.92;;
9722;SDS011;4900;49.306;8.500;2022-10-16T11:12:55;2.33;;;1.90;;
9722;SDS011;4900;49.306;8.500;2022-10-16T11:19:38;3.03;;;1.90;;
9722;SDS011;4900;49.306;8.500;2022-10-16T11:23:14;3.80;;;2.08;;
9722;SDS011;4900;49.306;8.500;2022-10-16T11:26:26;3.30;;;1.80;;
9722;SDS011;4900;49.306;8.500;2022-10-16T11:29:33;2.85;;;1.98;;
9722;SDS011;4900;49.306;8.500;2022-10-16T11:32:49;2.30;;;2.00;;
9722;SDS011;4900;49.306;8.500;2022-10-16T11:36:00;2.60;;;1.85;;
9722;SDS011;4900;49.306;8.500;2022-10-16T11:39:21;3.10;;;1.98;;
9722;SDS011;4900;49.306;8.500;2022-10-16T11:42:29;3.38;;;1.90;;
9722;SDS011;4900;49.306;8.500;2022-10-16T11:45:39;2.60;;;1.92;;
9722;SDS011;4900;49.306;8.500;2022-10-16T11:48:57;2.92;;;1.77;;
9722;SDS011;4900;49.306;8.500;2022-10-16T11:55:39;3.33;;;1.90;;
9722;SDS011;4900;49.306;8.500;2022-10-16T12:09:28;3.47;;;2.17;;
9722;SDS011;4900;49.306;8.500;2022-10-16T12:15:37;3.85;;;2.10;;
9722;SDS011;4900;49.306;8.500;2022-10-16T12:18:41;2.80;;;1.92;;
9722;SDS011;4900;49.306;8.500;2022-10-16T12:21:48;2.60;;;1.88;;
9722;SDS011;4900;49.306;8.500;2022-10-16T12:24:53;2.70;;;2.20;;
9722;SDS011;4900;49.306;8.500;2022-10-16T12:28:00;2.72;;;1.77;;
9722;SDS011;4900;49.306;8.500;2022-10-16T12:31:08;3.67;;;1.95;;
9722;SDS011;4900;49.306;8.500;2022-10-16T12:37:34;2.15;;;1.80;;
9722;SDS011;4900;49.306;8.500;2022-10-16T12:40:39;3.17;;;2.00;;
9722;SDS011;4900;49.306;8.500;2022-10-16T12:43:43;3.28;;;2.00;;
9722;SDS011;4900;49.306;8.500;2022-10-16T12:46:48;4.05;;;1.98;;
9722;SDS011;4900;49.306;8.500;2022-10-16T12:49:53;3.50;;;1.95;;
9722;SDS011;4900;49.306;8.500;2022-10-16T12:52:57;4.45;;;1.80;;
9722;SDS011;4900;49.306;8.500;2022-10-16T12:56:03;1.92;;;1.80;;
9722;SDS011;4900;49.306;8.500;2022-10-16T13:05:35;2.50;;;1.88;;
9722;SDS011;4900;49.306;8.500;2022-10-16T13:12:42;3.22;;;2.00;;
9722;SDS011;4900;49.306;8.500;2022-10-16T13:15:55;2.75;;;1.85;;
9722;SDS011;4900;49.306;8.500;2022-10-16T13:28:38;4.47;;;2.10;;
9722;SDS011;4900;49.306;8.500;2022-10-16T13:31:42;2.95;;;2.10;;
9722;SDS011;4900;49.306;8.500;2022-10-16T13:34:47;2.47;;;1.92;;
9722;SDS011;4900;49.306;8.500;2022-10-16T13:38:02;3.92;;;2.13;;
9722;SDS011;4900;49.306;8.500;2022-10-16T13:41:15;3.50;;;2.15;;
9722;SDS011;4900;49.306;8.500;2022-10-16T13:44:19;3.70;;;2.50;;
9722;SDS011;4900;49.306;8.500;2022-10-16T13:47:24;4.05;;;2.22;;
9722;SDS011;4900;49.306;8.500;2022-10-16T13:50:31;2.30;;;2.10;;
9722;SDS011;4900;49.306;8.500;2022-10-16T13:53:35;3.53;;;2.30;;
9722;SDS011;4900;49.306;8.500;2022-10-16T13:56:39;3.92;;;2.40;;
9722;SDS011;4900;49.306;8.500;2022-10-16T13:59:43;3.83;;;2.25;;
9722;SDS011;4900;49.306;8.500;2022-10-16T14:02:49;2.95;;;2.42;;
9722;SDS011;4900;49.306;8.500;2022-10-16T14:05:56;3.35;;;2.40;;
9722;SDS011;4900;49.306;8.500;2022-10-16T14:12:10;3.58;;;2.47;;
9722;SDS011;4900;49.306;8.500;2022-10-16T14:15:17;5.78;;;2.30;;
9722;SDS011;4900;49.306;8.500;2022-10-16T14:18:22;3.13;;;2.08;;
9722;SDS011;4900;49.306;8.500;2022-10-16T14:21:27;3.88;;;2.38;;
9722;SDS011;4900;49.306;8.500;2022-10-16T14:27:35;3.60;;;2.45;;
9722;SDS011;4900;49.306;8.500;2022-10-16T14:30:49;2.60;;;2.40;;
9722;SDS011;4900;49.306;8.500;2022-10-16T14:33:55;4.07;;;2.60;;
9722;SDS011;4900;49.306;8.500;2022-10-16T14:37:00;3.30;;;3.00;;
9722;SDS011;4900;49.306;8.500;2022-10-16T14:40:13;2.88;;;2.67;;
9722;SDS011;4900;49.306;8.500;2022-10-16T14:43:21;3.28;;;2.97;;
9722;SDS011;4900;49.306;8.500;2022-10-16T14:46:38;3.40;;;3.10;;
9722;SDS011;4900;49.306;8.500;2022-10-16T14:49:44;4.57;;;2.80;;
9722;SDS011;4900;49.306;8.500;2022-10-16T14:52:47;4.93;;;3.20;;
9722;SDS011;4900;49.306;8.500;2022-10-16T14:55:51;6.60;;;3.20;;
9722;SDS011;4900;49.306;8.500;2022-10-16T14:58:54;5.40;;;2.90;;
9722;SDS011;4900;49.306;8.500;2022-10-16T15:01:58;4.82;;;3.03;;
9722;SDS011;4900;49.306;8.500;2022-10-16T15:05:07;5.35;;;3.03;;
9722;SDS011;4900;49.306;8.500;2022-10-16T15:08:15;3.10;;;2.80;;
9722;SDS011;4900;49.306;8.500;2022-10-16T15:11:19;3.33;;;2.70;;
9722;SDS011;4900;49.306;8.500;2022-10-16T15:14:22;4.30;;;2.88;;
9722;SDS011;4900;49.306;8.500;2022-10-16T15:17:25;5.68;;;2.95;;
9722;SDS011;4900;49.306;8.500;2022-10-16T15:20:28;3.20;;;2.67;;
9722;SDS011;4900;49.306;8.500;2022-10-16T15:23:35;5.97;;;2.67;;
9722;SDS011;4900;49.306;8.500;2022-10-16T15:26:37;3.17;;;2.50;;
9722;SDS011;4900;49.306;8.500;2022-10-16T15:29:41;4.65;;;2.60;;
9722;SDS011;4900;49.306;8.500;2022-10-16T15:32:44;2.78;;;2.38;;
9722;SDS011;4900;49.306;8.500;2022-10-16T15:35:47;4.30;;;2.42;;
9722;SDS011;4900;49.306;8.500;2022-10-16T15:38:54;2.75;;;2.40;;
9722;SDS011;4900;49.306;8.500;2022-10-16T15:41:58;4.88;;;2.70;;
9722;SDS011;4900;49.306;8.500;2022-10-16T15:45:01;3.50;;;2.60;;
9722;SDS011;4900;49.306;8.500;2022-10-16T15:48:04;4.47;;;2.67;;
9722;SDS011;4900;49.306;8.500;2022-10-16T15:51:07;3.72;;;2.60;;
9722;SDS011;4900;49.306;8.500;2022-10-16T15:54:11;4.90;;;2.75;;
9722;SDS011;4900;49.306;8.500;2022-10-16T15:57:14;3.85;;;2.63;;
9722;SDS011;4900;49.306;8.500;2022-10-16T16:00:18;5.78;;;2.50;;
9722;SDS011;4900;49.306;8.500;2022-10-16T16:03:27;5.63;;;2.90;;
9722;SDS011;4900;49.306;8.500;2022-10-16T16:06:31;3.97;;;2.70;;
9722;SDS011;4900;49.306;8.500;2022-10-16T16:09:34;3.40;;;2.70;;
9722;SDS011;4900;49.306;8.500;2022-10-16T16:12:37;2.95;;;2.50;;
9722;SDS011;4900;49.306;8.500;2022-10-16T16:15:41;3.38;;;2.90;;
9722;SDS011;4900;49.306;8.500;2022-10-16T16:18:44;3.60;;;2.90;;
9722;SDS011;4900;49.306;8.500;2022-10-16T16:21:47;4.75;;;2.95;;
9722;SDS011;4900;49.306;8.500;2022-10-16T16:24:51;3.88;;;3.00;;
9722;SDS011;4900;49.306;8.500;2022-10-16T16:27:53;3.75;;;2.85;;
9722;SDS011;4900;49.306;8.500;2022-10-16T16:30:56;5.13;;;3.17;;
9722;SDS011;4900;49.306;8.500;2022-10-16T16:33:59;5.05;;;3.10;;
9722;SDS011;4900;49.306;8.500;2022-10-16T16:37:02;5.68;;;3.33;;
9722;SDS011;4900;49.306;8.500;2022-10-16T16:40:05;4.00;;;2.90;;
9722;SDS011;4900;49.306;8.500;2022-10-16T16:43:09;3.50;;;3.20;;
9722;SDS011;4900;49.306;8.500;2022-10-16T16:46:11;4.55;;;2.92;;
9722;SDS011;4900;49.306;8.500;2022-10-16T16:49:14;5.00;;;3.13;;
9722;SDS011;4900;49.306;8.500;2022-10-16T16:52:18;3.50;;;3.20;;
9722;SDS011;4900;49.306;8.500;2022-10-16T16:55:21;3.30;;;2.90;;
9722;SDS011;4900;49.306;8.500;2022-10-16T16:58:24;4.22;;;3.30;;
9722;SDS011;4900;49.306;8.500;2022-10-16T17:01:27;3.78;;;3.17;;
9722;SDS011;4900;49.306;8.500;2022-10-16T17:04:31;3.75;;;3.35;;
9722;SDS011;4900;49.306;8.500;2022-10-16T17:07:33;3.90;;;3.40;;
9722;SDS011;4900;49.306;8.500;2022-10-16T17:10:43;5.35;;;3.30;;
9722;SDS011;4900;49.306;8.500;2022-10-16T17:13:47;6.97;;;4.50;;
9722;SDS011;4900;49.306;8.500;2022-10-16T17:16:51;4.95;;;3.55;;
9722;SDS011;4900;49.306;8.500;2022-10-16T17:19:55;4.28;;;3.80;;
9722;SDS011;4900;49.306;8.500;2022-10-16T17:22:57;6.72;;;4.30;;
9722;SDS011;4900;49.306;8.500;2022-10-16T17:26:04;6.15;;;3.67;;
9722;SDS011;4900;49.306;8.500;2022-10-16T17:29:18;7.72;;;3.58;;
9722;SDS011;4900;49.306;8.500;2022-10-16T17:32:21;4.05;;;3.60;;
9722;SDS011;4900;49.306;8.500;2022-10-16T17:35:25;4.43;;;3.92;;
9722;SDS011;4900;49.306;8.500;2022-10-16T17:38:28;5.80;;;3.47;;
9722;SDS011;4900;49.306;8.500;2022-10-16T17:41:32;5.15;;;3.72;;
9722;SDS011;4900;49.306;8.500;2022-10-16T17:44:36;4.18;;;3.30;;
9722;SDS011;4900;49.306;8.500;2022-10-16T17:47:39;3.92;;;3.22;;
9722;SDS011;4900;49.306;8.500;2022-10-16T17:50:44;5.68;;;3.75;;
9722;SDS011;4900;49.306;8.500;2022-10-16T17:53:48;6.38;;;5.03;;
9722;SDS011;4900;49.306;8.500;2022-10-16T17:56:53;8.68;;;5.55;;
9722;SDS011;4900;49.306;8.500;2022-10-16T17:59:56;6.75;;;5.20;;
9722;SDS011;4900;49.306;8.500;2022-10-16T18:02:59;8.40;;;7.25;;
9722;SDS011;4900;49.306;8.500;2022-10-16T18:06:02;10.57;;;9.00;;
9722;SDS011;4900;49.306;8.500;2022-10-16T18:09:06;19.02;;;13.70;;
9722;SDS011;4900;49.306;8.500;2022-10-16T18:12:11;12.13;;;10.63;;
9722;SDS011;4900;49.306;8.500;2022-10-16T18:15:14;8.60;;;6.82;;
9722;SDS011;4900;49.306;8.500;2022-10-16T18:18:17;7.88;;;4.70;;
9722;SDS011;4900;49.306;8.500;2022-10-16T18:21:20;7.82;;;5.00;;
9722;SDS011;4900;49.306;8.500;2022-10-16T18:24:23;8.60;;;5.10;;
9722;SDS011;4900;49.306;8.500;2022-10-16T18:27:27;6.63;;;4.63;;
9722;SDS011;4900;49.306;8.500;2022-10-16T18:30:31;6.53;;;4.68;;
9722;SDS011;4900;49.306;8.500;2022-10-16T18:33:33;8.15;;;5.13;;
9722;SDS011;4900;49.306;8.500;2022-10-16T18:36:37;4.93;;;4.00;;
9722;SDS011;4900;49.306;8.500;2022-10-16T18:39:41;6.95;;;3.92;;
9722;SDS011;4900;49.306;8.500;2022-10-16T18:42:47;6.57;;;3.85;;
9722;SDS011;4900;49.306;8.500;2022-10-16T18:45:55;5.75;;;4.18;;
9722;SDS011;4900;49.306;8.500;2022-10-16T18:49:09;9.13;;;3.90;;
9722;SDS011;4900;49.306;8.500;2022-10-16T18:52:12;5.97;;;3.60;;
9722;SDS011;4900;49.306;8.500;2022-10-16T18:55:15;6.68;;;3.47;;
9722;SDS011;4900;49.306;8.500;2022-10-16T18:58:18;6.07;;;3.92;;
9722;SDS011;4900;49.306;8.500;2022-10-16T19:01:22;4.72;;;3.50;;
9722;SDS011;4900;49.306;8.500;2022-10-16T19:04:26;5.82;;;3.88;;
9722;SDS011;4900;49.306;8.500;2022-10-16T19:07:29;5.72;;;3.90;;
9722;SDS011;4900;49.306;8.500;2022-10-16T19:10:34;4.72;;;3.47;;
9722;SDS011;4900;49.306;8.500;2022-10-16T19:13:38;9.48;;;3.67;;
9722;SDS011;4900;49.306;8.500;2022-10-16T19:16:41;9.20;;;3.72;;
9722;SDS011;4900;49.306;8.500;2022-10-16T19:19:44;6.15;;;3.97;;
9722;SDS011;4900;49.306;8.500;2022-10-16T19:22:47;5.82;;;3.67;;
9722;SDS011;4900;49.306;8.500;2022-10-16T19:25:59;7.72;;;3.88;;
9722;SDS011;4900;49.306;8.500;2022-10-16T19:29:06;8.63;;;4.07;;
9722;SDS011;4900;49.306;8.500;2022-10-16T19:32:11;6.65;;;3.90;;
9722;SDS011;4900;49.306;8.500;2022-10-16T19:35:14;5.57;;;4.40;;
9722;SDS011;4900;49.306;8.500;2022-10-16T19:38:18;5.80;;;4.30;;
9722;SDS011;4900;49.306;8.500;2022-10-16T19:41:22;8.18;;;4.00;;
9722;SDS011;4900;49.306;8.500;2022-10-16T19:44:26;5.80;;;3.80;;
9722;SDS011;4900;49.306;8.500;2022-10-16T19:47:30;5.05;;;3.95;;
9722;SDS011;4900;49.306;8.500;2022-10-16T19:50:33;6.93;;;4.10;;
9722;SDS011;4900;49.306;8.500;2022-10-16T19:53:36;9.15;;;4.10;;
9722;SDS011;4900;49.306;8.500;2022-10-16T19:56:48;7.15;;;4.28;;
9722;SDS011;4900;49.306;8.500;2022-10-16T19:59:53;7.32;;;3.72;;
9722;SDS011;4900;49.306;8.500;2022-10-16T20:02:57;5.00;;;4.35;;
9722;SDS011;4900;49.306;8.500;2022-10-16T20:06:00;5.55;;;3.92;;
9722;SDS011;4900;49.306;8.500;2022-10-16T20:09:08;5.68;;;4.13;;
9722;SDS011;4900;49.306;8.500;2022-10-16T20:12:11;6.00;;;4.20;;
9722;SDS011;4900;49.306;8.500;2022-10-16T20:15:14;6.43;;;4.30;;
9722;SDS011;4900;49.306;8.500;2022-10-16T20:18:17;5.93;;;3.97;;
9722;SDS011;4900;49.306;8.500;2022-10-16T20:21:22;6.82;;;4.53;;
9722;SDS011;4900;49.306;8.500;2022-10-16T20:24:27;6.95;;;4.05;;
9722;SDS011;4900;49.306;8.500;2022-10-16T20:27:30;9.07;;;4.15;;
9722;SDS011;4900;49.306;8.500;2022-10-16T20:30:33;5.35;;;3.80;;
9722;SDS011;4900;49.306;8.500;2022-10-16T20:33:38;8.77;;;4.13;;
9722;SDS011;4900;49.306;8.500;2022-10-16T20:36:41;6.57;;;4.13;;
9722;SDS011;4900;49.306;8.500;2022-10-16T20:39:46;4.38;;;3.63;;
9722;SDS011;4900;49.306;8.500;2022-10-16T20:42:49;5.30;;;4.03;;
9722;SDS011;4900;49.306;8.500;2022-10-16T20:45:59;4.68;;;4.07;;
9722;SDS011;4900;49.306;8.500;2022-10-16T20:49:05;5.18;;;4.35;;
9722;SDS011;4900;49.306;8.500;2022-10-16T20:52:10;4.97;;;3.63;;
9722;SDS011;4900;49.306;8.500;2022-10-16T20:55:13;9.25;;;5.20;;
9722;SDS011;4900;49.306;8.500;2022-10-16T20:58:18;5.25;;;4.20;;
9722;SDS011;4900;49.306;8.500;2022-10-16T21:01:24;4.18;;;3.78;;
9722;SDS011;4900;49.306;8.500;2022-10-16T21:04:29;5.30;;;4.78;;
9722;SDS011;4900;49.306;8.500;2022-10-16T21:07:32;4.82;;;4.22;;
9722;SDS011;4900;49.306;8.500;2022-10-16T21:10:36;10.35;;;5.10;;
9722;SDS011;4900;49.306;8.500;2022-10-16T21:13:39;8.02;;;5.20;;
9722;SDS011;4900;49.306;8.500;2022-10-16T21:16:43;5.20;;;4.70;;